Fort Screven, Georgia
Current Conditions -  °F | °C
As of 10:43 PM on Monday 22 Dec 2014 (Local Time) from KSVN Reporting Station
Overcast Overcast  
Wind Chill: 52°   Ceiling: 300
Heat Index: 52°   Visibility: 9mi
Dew Point: 52°   Wind: 3mph
Humidity: 100%   Direction: 30°NNE
Pressure: 29.95"   Gusts: NA
Location:  32.0073°N, 80.8681°W
Report Text: KSVN 230343Z AUTO 03003KT 9SM R28/5500FT OVC003 11/11 A2995 RMK AO2
Loading
Personal Weather Stations






























Interactive Weather Map New forecast layout! Learn more

10-Day Weather Forecast

Advertisements
Track Severe Weather on mobile